sensor_id;sensor_type;location;lat;lon;timestamp;temperature;humidity
15259;DHT22;34462;51.368;12.364;2023-03-23T00:02:04;12.90;99.90
15259;DHT22;34462;51.368;12.364;2023-03-23T00:04:31;12.80;99.90
15259;DHT22;34462;51.368;12.364;2023-03-23T00:06:58;12.80;99.90
15259;DHT22;34462;51.368;12.364;2023-03-23T00:09:26;12.90;99.90
15259;DHT22;34462;51.368;12.364;2023-03-23T00:11:55;12.80;99.90
15259;DHT22;34462;51.368;12.364;2023-03-23T00:14:31;12.80;99.90
15259;DHT22;34462;51.368;12.364;2023-03-23T00:17:07;12.70;99.90
15259;DHT22;34462;51.368;12.364;2023-03-23T00:19:37;12.70;99.90
15259;DHT22;34462;51.368;12.364;2023-03-23T00:22:12;12.70;99.90
15259;DHT22;34462;51.368;12.364;2023-03-23T00:24:40;12.70;99.90
15259;DHT22;34462;51.368;12.364;2023-03-23T00:27:09;12.60;99.90
15259;DHT22;34462;51.368;12.364;2023-03-23T00:29:40;12.50;99.90
15259;DHT22;34462;51.368;12.364;2023-03-23T00:32:11;12.50;99.90
15259;DHT22;34462;51.368;12.364;2023-03-23T00:34:40;12.50;99.90
15259;DHT22;34462;51.368;12.364;2023-03-23T00:37:09;12.40;99.90
15259;DHT22;34462;51.368;12.364;2023-03-23T00:39:38;12.40;99.90
15259;DHT22;34462;51.368;12.364;2023-03-23T00:42:13;12.30;99.90
15259;DHT22;34462;51.368;12.364;2023-03-23T00:44:42;12.20;99.90
15259;DHT22;34462;51.368;12.364;2023-03-23T00:47:11;12.20;99.90
15259;DHT22;34462;51.368;12.364;2023-03-23T00:49:38;12.20;99.90
15259;DHT22;34462;51.368;12.364;2023-03-23T00:52:06;12.10;99.90
15259;DHT22;34462;51.368;12.364;2023-03-23T00:54:34;12.20;99.90
15259;DHT22;34462;51.368;12.364;2023-03-23T00:57:03;12.40;99.90
15259;DHT22;34462;51.368;12.364;2023-03-23T00:59:33;12.40;99.90
15259;DHT22;34462;51.368;12.364;2023-03-23T01:02:00;12.40;99.90
15259;DHT22;34462;51.368;12.364;2023-03-23T01:04:27;12.50;99.90
15259;DHT22;34462;51.368;12.364;2023-03-23T01:06:57;12.40;99.90
15259;DHT22;34462;51.368;12.364;2023-03-23T01:09:26;12.40;99.90
15259;DHT22;34462;51.368;12.364;2023-03-23T01:11:53;12.40;99.90
15259;DHT22;34462;51.368;12.364;2023-03-23T01:14:22;12.40;99.90
15259;DHT22;34462;51.368;12.364;2023-03-23T01:16:50;12.40;99.90
15259;DHT22;34462;51.368;12.364;2023-03-23T01:19:18;12.40;99.90
15259;DHT22;34462;51.368;12.364;2023-03-23T01:21:45;12.40;99.90
15259;DHT22;34462;51.368;12.364;2023-03-23T01:24:12;12.50;99.90
15259;DHT22;34462;51.368;12.364;2023-03-23T01:26:40;12.60;99.90
15259;DHT22;34462;51.368;12.364;2023-03-23T01:29:07;12.50;99.90
15259;DHT22;34462;51.368;12.364;2023-03-23T01:31:34;12.40;99.90
15259;DHT22;34462;51.368;12.364;2023-03-23T01:34:03;12.40;99.90
15259;DHT22;34462;51.368;12.364;2023-03-23T01:36:31;12.30;99.90
15259;DHT22;34462;51.368;12.364;2023-03-23T01:38:59;12.20;99.90
15259;DHT22;34462;51.368;12.364;2023-03-23T01:41:29;12.20;99.90
15259;DHT22;34462;51.368;12.364;2023-03-23T01:44:00;12.10;99.90
15259;DHT22;34462;51.368;12.364;2023-03-23T01:46:30;12.10;99.90
15259;DHT22;34462;51.368;12.364;2023-03-23T01:49:02;12.00;99.90
15259;DHT22;34462;51.368;12.364;2023-03-23T01:51:35;11.90;99.90
15259;DHT22;34462;51.368;12.364;2023-03-23T01:54:10;11.80;99.90
15259;DHT22;34462;51.368;12.364;2023-03-23T01:56:47;11.90;99.90
15259;DHT22;34462;51.368;12.364;2023-03-23T01:59:19;12.00;99.90
15259;DHT22;34462;51.368;12.364;2023-03-23T02:01:50;12.10;99.90
15259;DHT22;34462;51.368;12.364;2023-03-23T02:04:19;12.00;99.90
15259;DHT22;34462;51.368;12.364;2023-03-23T02:06:50;12.10;99.90
15259;DHT22;34462;51.368;12.364;2023-03-23T02:09:18;12.20;99.90
15259;DHT22;34462;51.368;12.364;2023-03-23T02:11:47;12.20;99.90
15259;DHT22;34462;51.368;12.364;2023-03-23T02:14:16;12.30;99.90
15259;DHT22;34462;51.368;12.364;2023-03-23T02:16:49;12.30;99.90
15259;DHT22;34462;51.368;12.364;2023-03-23T02:19:54;12.40;99.90
15259;DHT22;34462;51.368;12.364;2023-03-23T02:22:57;12.50;99.90
15259;DHT22;34462;51.368;12.364;2023-03-23T02:26:03;12.50;99.90
15259;DHT22;34462;51.368;12.364;2023-03-23T02:29:02;12.40;99.90
15259;DHT22;34462;51.368;12.364;2023-03-23T02:32:00;12.40;99.90
15259;DHT22;34462;51.368;12.364;2023-03-23T02:34:42;12.30;99.90
15259;DHT22;34462;51.368;12.364;2023-03-23T02:37:21;12.20;99.90
15259;DHT22;34462;51.368;12.364;2023-03-23T02:39:57;12.30;99.90
15259;DHT22;34462;51.368;12.364;2023-03-23T02:42:33;12.40;99.90
15259;DHT22;34462;51.368;12.364;2023-03-23T02:45:04;12.40;99.90
15259;DHT22;34462;51.368;12.364;2023-03-23T02:47:38;12.40;99.90
15259;DHT22;34462;51.368;12.364;2023-03-23T02:50:10;12.50;99.90
15259;DHT22;34462;51.368;12.364;2023-03-23T02:52:41;12.50;99.90
15259;DHT22;34462;51.368;12.364;2023-03-23T02:55:11;12.40;99.90
15259;DHT22;34462;51.368;12.364;2023-03-23T02:57:41;12.40;99.90
15259;DHT22;34462;51.368;12.364;2023-03-23T03:00:13;12.40;99.90
15259;DHT22;34462;51.368;12.364;2023-03-23T03:02:46;12.50;99.90
15259;DHT22;34462;51.368;12.364;2023-03-23T03:05:28;12.40;99.90
15259;DHT22;34462;51.368;12.364;2023-03-23T03:08:12;12.50;99.90
15259;DHT22;34462;51.368;12.364;2023-03-23T03:10:50;12.60;99.90
15259;DHT22;34462;51.368;12.364;2023-03-23T03:13:34;12.60;99.90
15259;DHT22;34462;51.368;12.364;2023-03-23T03:16:18;12.70;99.90
15259;DHT22;34462;51.368;12.364;2023-03-23T03:18:56;12.60;99.90
15259;DHT22;34462;51.368;12.364;2023-03-23T03:21:31;12.60;99.90
15259;DHT22;34462;51.368;12.364;2023-03-23T03:24:04;12.60;99.90
15259;DHT22;34462;51.368;12.364;2023-03-23T03:26:37;12.60;99.90
15259;DHT22;34462;51.368;12.364;2023-03-23T03:29:14;12.70;99.90
15259;DHT22;34462;51.368;12.364;2023-03-23T03:31:44;12.70;99.90
15259;DHT22;34462;51.368;12.364;2023-03-23T03:34:15;12.80;99.90
15259;DHT22;34462;51.368;12.364;2023-03-23T03:36:46;12.80;99.90
15259;DHT22;34462;51.368;12.364;2023-03-23T03:39:16;12.80;99.90
15259;DHT22;34462;51.368;12.364;2023-03-23T03:41:45;12.80;99.90
15259;DHT22;34462;51.368;12.364;2023-03-23T03:44:13;12.80;99.90
15259;DHT22;34462;51.368;12.364;2023-03-23T03:46:41;12.80;99.90
15259;DHT22;34462;51.368;12.364;2023-03-23T03:49:10;12.80;99.90
15259;DHT22;34462;51.368;12.364;2023-03-23T03:51:39;12.90;99.90
15259;DHT22;34462;51.368;12.364;2023-03-23T03:54:07;12.90;99.90
15259;DHT22;34462;51.368;12.364;2023-03-23T03:56:36;12.90;99.90
15259;DHT22;34462;51.368;12.364;2023-03-23T03:59:06;12.90;99.90
15259;DHT22;34462;51.368;12.364;2023-03-23T04:01:34;12.90;99.90
15259;DHT22;34462;51.368;12.364;2023-03-23T04:04:02;12.90;99.90
15259;DHT22;34462;51.368;12.364;2023-03-23T04:06:30;13.00;99.90
15259;DHT22;34462;51.368;12.364;2023-03-23T04:08:58;12.90;99.90
15259;DHT22;34462;51.368;12.364;2023-03-23T04:11:28;12.90;99.90
15259;DHT22;34462;51.368;12.364;2023-03-23T04:13:55;12.80;99.90
15259;DHT22;34462;51.368;12.364;2023-03-23T04:16:22;12.80;99.90
15259;DHT22;34462;51.368;12.364;2023-03-23T04:18:49;12.80;99.90
15259;DHT22;34462;51.368;12.364;2023-03-23T04:21:17;12.70;99.90
15259;DHT22;34462;51.368;12.364;2023-03-23T04:23:44;12.90;99.90
15259;DHT22;34462;51.368;12.364;2023-03-23T04:26:11;12.90;99.90
15259;DHT22;34462;51.368;12.364;2023-03-23T04:28:40;12.80;99.90
15259;DHT22;34462;51.368;12.364;2023-03-23T04:31:07;12.80;99.90
15259;DHT22;34462;51.368;12.364;2023-03-23T04:33:38;12.90;99.90
15259;DHT22;34462;51.368;12.364;2023-03-23T04:36:07;12.90;99.90
15259;DHT22;34462;51.368;12.364;2023-03-23T04:38:34;12.90;99.90
15259;DHT22;34462;51.368;12.364;2023-03-23T04:41:01;12.90;99.90
15259;DHT22;34462;51.368;12.364;2023-03-23T04:43:29;12.90;99.90
15259;DHT22;34462;51.368;12.364;2023-03-23T04:45:59;12.80;99.90
15259;DHT22;34462;51.368;12.364;2023-03-23T04:48:30;12.70;99.90
15259;DHT22;34462;51.368;12.364;2023-03-23T04:51:00;12.70;99.90
15259;DHT22;34462;51.368;12.364;2023-03-23T04:53:28;12.70;99.90
15259;DHT22;34462;51.368;12.364;2023-03-23T04:55:55;12.80;99.90
15259;DHT22;34462;51.368;12.364;2023-03-23T04:58:23;12.80;99.90
15259;DHT22;34462;51.368;12.364;2023-03-23T05:00:50;12.70;99.90
15259;DHT22;34462;51.368;12.364;2023-03-23T05:03:19;12.70;99.90
15259;DHT22;34462;51.368;12.364;2023-03-23T05:05:47;12.70;99.90
15259;DHT22;34462;51.368;12.364;2023-03-23T05:08:18;12.60;99.90
15259;DHT22;34462;51.368;12.364;2023-03-23T05:10:53;12.60;99.90
15259;DHT22;34462;51.368;12.364;2023-03-23T05:13:22;12.50;99.90
15259;DHT22;34462;51.368;12.364;2023-03-23T05:15:49;12.50;99.90
15259;DHT22;34462;51.368;12.364;2023-03-23T05:18:18;12.50;99.90
15259;DHT22;34462;51.368;12.364;2023-03-23T05:20:47;12.50;99.90
15259;DHT22;34462;51.368;12.364;2023-03-23T05:23:18;12.50;99.90
15259;DHT22;34462;51.368;12.364;2023-03-23T05:25:53;12.50;99.90
15259;DHT22;34462;51.368;12.364;2023-03-23T05:28:20;12.40;99.90
15259;DHT22;34462;51.368;12.364;2023-03-23T05:30:49;12.40;99.90
15259;DHT22;34462;51.368;12.364;2023-03-23T05:33:16;12.40;99.90
15259;DHT22;34462;51.368;12.364;2023-03-23T05:35:45;12.40;99.90
15259;DHT22;34462;51.368;12.364;2023-03-23T05:38:14;12.40;99.90
15259;DHT22;34462;51.368;12.364;2023-03-23T05:40:41;12.40;99.90
15259;DHT22;34462;51.368;12.364;2023-03-23T05:43:09;12.40;99.90
15259;DHT22;34462;51.368;12.364;2023-03-23T05:45:36;12.40;99.90
15259;DHT22;34462;51.368;12.364;2023-03-23T05:48:04;12.40;99.90
15259;DHT22;34462;51.368;12.364;2023-03-23T05:50:32;12.40;99.90
15259;DHT22;34462;51.368;12.364;2023-03-23T05:53:01;12.40;99.90
15259;DHT22;34462;51.368;12.364;2023-03-23T05:55:29;12.40;99.90
15259;DHT22;34462;51.368;12.364;2023-03-23T05:57:58;12.40;99.90
15259;DHT22;34462;51.368;12.364;2023-03-23T06:00:25;12.40;99.90
15259;DHT22;34462;51.368;12.364;2023-03-23T06:02:56;12.50;99.90
15259;DHT22;34462;51.368;12.364;2023-03-23T06:05:23;12.50;99.90
15259;DHT22;34462;51.368;12.364;2023-03-23T06:07:51;12.50;99.90
15259;DHT22;34462;51.368;12.364;2023-03-23T06:10:20;12.50;99.90
15259;DHT22;34462;51.368;12.364;2023-03-23T06:12:49;12.40;99.90
15259;DHT22;34462;51.368;12.364;2023-03-23T06:15:17;12.50;99.90
15259;DHT22;34462;51.368;12.364;2023-03-23T06:17:45;12.50;99.90
15259;DHT22;34462;51.368;12.364;2023-03-23T06:20:12;12.50;99.90
15259;DHT22;34462;51.368;12.364;2023-03-23T06:22:40;12.40;99.90
15259;DHT22;34462;51.368;12.364;2023-03-23T06:25:08;12.40;99.90
15259;DHT22;34462;51.368;12.364;2023-03-23T06:27:39;12.40;99.90
15259;DHT22;34462;51.368;12.364;2023-03-23T06:30:08;12.40;99.90
15259;DHT22;34462;51.368;12.364;2023-03-23T06:32:37;12.30;99.90
15259;DHT22;34462;51.368;12.364;2023-03-23T06:35:06;12.30;99.90
15259;DHT22;34462;51.368;12.364;2023-03-23T06:37:34;12.20;99.90
15259;DHT22;34462;51.368;12.364;2023-03-23T06:40:02;12.20;99.90
15259;DHT22;34462;51.368;12.364;2023-03-23T06:42:31;12.10;99.90
15259;DHT22;34462;51.368;12.364;2023-03-23T06:45:01;12.20;99.90
15259;DHT22;34462;51.368;12.364;2023-03-23T06:47:29;12.10;99.90
15259;DHT22;34462;51.368;12.364;2023-03-23T06:49:56;12.10;99.90
15259;DHT22;34462;51.368;12.364;2023-03-23T06:52:23;12.10;99.90
15259;DHT22;34462;51.368;12.364;2023-03-23T06:54:51;12.10;99.90
15259;DHT22;34462;51.368;12.364;2023-03-23T06:57:19;12.10;99.90
15259;DHT22;34462;51.368;12.364;2023-03-23T06:59:47;12.10;99.90
15259;DHT22;34462;51.368;12.364;2023-03-23T07:02:15;12.20;99.90
15259;DHT22;34462;51.368;12.364;2023-03-23T07:04:43;12.30;99.90
15259;DHT22;34462;51.368;12.364;2023-03-23T07:07:11;12.40;99.90
15259;DHT22;34462;51.368;12.364;2023-03-23T07:09:44;12.40;99.90
15259;DHT22;34462;51.368;12.364;2023-03-23T07:12:11;12.40;99.90
15259;DHT22;34462;51.368;12.364;2023-03-23T07:14:40;12.50;99.90
15259;DHT22;34462;51.368;12.364;2023-03-23T07:17:07;12.50;99.90
15259;DHT22;34462;51.368;12.364;2023-03-23T07:19:36;12.60;99.90
15259;DHT22;34462;51.368;12.364;2023-03-23T07:22:04;12.70;99.90
15259;DHT22;34462;51.368;12.364;2023-03-23T07:24:32;12.80;99.90
15259;DHT22;34462;51.368;12.364;2023-03-23T07:27:00;12.80;99.90
15259;DHT22;34462;51.368;12.364;2023-03-23T07:29:28;12.80;99.90
15259;DHT22;34462;51.368;12.364;2023-03-23T07:31:55;12.90;99.90
15259;DHT22;34462;51.368;12.364;2023-03-23T07:34:23;12.90;99.90
15259;DHT22;34462;51.368;12.364;2023-03-23T07:36:51;12.90;99.90
15259;DHT22;34462;51.368;12.364;2023-03-23T07:39:18;13.00;99.90
15259;DHT22;34462;51.368;12.364;2023-03-23T07:41:45;13.00;99.90
15259;DHT22;34462;51.368;12.364;2023-03-23T07:44:12;13.00;99.90
15259;DHT22;34462;51.368;12.364;2023-03-23T07:46:40;13.00;99.90
15259;DHT22;34462;51.368;12.364;2023-03-23T07:49:07;13.00;99.90
15259;DHT22;34462;51.368;12.364;2023-03-23T07:51:36;13.00;99.90
15259;DHT22;34462;51.368;12.364;2023-03-23T07:54:06;13.00;99.90
15259;DHT22;34462;51.368;12.364;2023-03-23T07:56:34;13.00;99.90
15259;DHT22;34462;51.368;12.364;2023-03-23T07:59:02;13.00;99.90
15259;DHT22;34462;51.368;12.364;2023-03-23T08:01:30;13.00;99.90
15259;DHT22;34462;51.368;12.364;2023-03-23T08:03:58;13.10;99.90
15259;DHT22;34462;51.368;12.364;2023-03-23T08:06:25;13.10;99.90
15259;DHT22;34462;51.368;12.364;2023-03-23T08:08:53;13.20;99.90
15259;DHT22;34462;51.368;12.364;2023-03-23T08:11:22;13.30;99.90
15259;DHT22;34462;51.368;12.364;2023-03-23T08:13:49;13.30;99.90
15259;DHT22;34462;51.368;12.364;2023-03-23T08:16:16;13.30;99.90
15259;DHT22;34462;51.368;12.364;2023-03-23T08:18:44;13.30;99.90
15259;DHT22;34462;51.368;12.364;2023-03-23T08:21:12;13.30;99.90
15259;DHT22;34462;51.368;12.364;2023-03-23T08:23:39;13.40;99.90
15259;DHT22;34462;51.368;12.364;2023-03-23T08:26:07;13.40;99.90
15259;DHT22;34462;51.368;12.364;2023-03-23T08:28:37;13.40;99.90
15259;DHT22;34462;51.368;12.364;2023-03-23T08:31:06;13.40;99.90
15259;DHT22;34462;51.368;12.364;2023-03-23T08:33:34;13.30;99.90
15259;DHT22;34462;51.368;12.364;2023-03-23T08:36:02;13.40;99.90
15259;DHT22;34462;51.368;12.364;2023-03-23T08:38:30;13.50;99.90
15259;DHT22;34462;51.368;12.364;2023-03-23T08:40:58;13.60;99.90
15259;DHT22;34462;51.368;12.364;2023-03-23T08:43:27;13.80;99.90
15259;DHT22;34462;51.368;12.364;2023-03-23T08:45:55;13.90;99.90
15259;DHT22;34462;51.368;12.364;2023-03-23T08:48:22;14.10;99.90
15259;DHT22;34462;51.368;12.364;2023-03-23T08:50:50;14.40;99.90
15259;DHT22;34462;51.368;12.364;2023-03-23T08:53:19;14.50;99.90
15259;DHT22;34462;51.368;12.364;2023-03-23T08:55:47;14.80;99.90
15259;DHT22;34462;51.368;12.364;2023-03-23T08:58:15;15.00;99.90
15259;DHT22;34462;51.368;12.364;2023-03-23T09:00:43;15.20;99.90
15259;DHT22;34462;51.368;12.364;2023-03-23T09:03:12;15.30;99.90
15259;DHT22;34462;51.368;12.364;2023-03-23T09:05:40;15.40;99.90
15259;DHT22;34462;51.368;12.364;2023-03-23T09:08:11;15.50;99.90
15259;DHT22;34462;51.368;12.364;2023-03-23T09:10:39;15.50;99.90
15259;DHT22;34462;51.368;12.364;2023-03-23T09:13:06;15.60;99.90
15259;DHT22;34462;51.368;12.364;2023-03-23T09:15:33;15.40;99.90
15259;DHT22;34462;51.368;12.364;2023-03-23T09:18:01;15.50;99.90
15259;DHT22;34462;51.368;12.364;2023-03-23T09:20:30;15.60;99.90
15259;DHT22;34462;51.368;12.364;2023-03-23T09:22:57;15.70;99.90
15259;DHT22;34462;51.368;12.364;2023-03-23T09:25:27;15.80;99.90
15259;DHT22;34462;51.368;12.364;2023-03-23T09:27:56;15.90;99.90
15259;DHT22;34462;51.368;12.364;2023-03-23T09:30:28;16.00;99.90
15259;DHT22;34462;51.368;12.364;2023-03-23T09:32:57;16.00;99.90
15259;DHT22;34462;51.368;12.364;2023-03-23T09:35:26;16.00;99.90
15259;DHT22;34462;51.368;12.364;2023-03-23T09:37:55;15.90;99.90
15259;DHT22;34462;51.368;12.364;2023-03-23T09:40:29;15.90;99.90
15259;DHT22;34462;51.368;12.364;2023-03-23T09:46:29;16.00;99.90
15259;DHT22;34462;51.368;12.364;2023-03-23T09:49:08;16.00;99.90
15259;DHT22;34462;51.368;12.364;2023-03-23T09:51:42;16.10;99.90
15259;DHT22;34462;51.368;12.364;2023-03-23T09:54:19;16.10;99.90
15259;DHT22;34462;51.368;12.364;2023-03-23T09:56:49;16.30;99.90
15259;DHT22;34462;51.368;12.364;2023-03-23T09:59:22;16.40;99.90
15259;DHT22;34462;51.368;12.364;2023-03-23T10:01:57;16.50;99.90
15259;DHT22;34462;51.368;12.364;2023-03-23T10:04:36;16.60;99.90
15259;DHT22;34462;51.368;12.364;2023-03-23T10:07:11;16.40;99.90
15259;DHT22;34462;51.368;12.364;2023-03-23T10:09:43;16.40;99.90
15259;DHT22;34462;51.368;12.364;2023-03-23T10:12:29;16.30;99.90
15259;DHT22;34462;51.368;12.364;2023-03-23T10:15:12;16.30;99.90
15259;DHT22;34462;51.368;12.364;2023-03-23T10:17:46;16.30;99.90
15259;DHT22;34462;51.368;12.364;2023-03-23T10:20:32;16.40;99.90
15259;DHT22;34462;51.368;12.364;2023-03-23T10:23:20;16.40;99.90
15259;DHT22;34462;51.368;12.364;2023-03-23T10:26:08;16.50;99.90
15259;DHT22;34462;51.368;12.364;2023-03-23T10:28:42;16.70;99.90
15259;DHT22;34462;51.368;12.364;2023-03-23T10:31:13;16.70;99.90
15259;DHT22;34462;51.368;12.364;2023-03-23T10:33:47;16.60;99.90
15259;DHT22;34462;51.368;12.364;2023-03-23T10:36:19;16.70;99.90
15259;DHT22;34462;51.368;12.364;2023-03-23T10:38:57;16.70;99.90
15259;DHT22;34462;51.368;12.364;2023-03-23T10:41:29;16.70;99.90
15259;DHT22;34462;51.368;12.364;2023-03-23T10:43:56;16.60;99.90
15259;DHT22;34462;51.368;12.364;2023-03-23T10:46:31;16.80;99.90
15259;DHT22;34462;51.368;12.364;2023-03-23T10:49:18;16.60;99.90
15259;DHT22;34462;51.368;12.364;2023-03-23T10:51:56;16.60;99.90
15259;DHT22;34462;51.368;12.364;2023-03-23T10:54:31;16.60;99.90
15259;DHT22;34462;51.368;12.364;2023-03-23T10:57:21;16.50;99.90
15259;DHT22;34462;51.368;12.364;2023-03-23T10:59:50;16.50;99.90
15259;DHT22;34462;51.368;12.364;2023-03-23T11:02:19;16.50;99.90
15259;DHT22;34462;51.368;12.364;2023-03-23T11:04:55;16.50;99.90
15259;DHT22;34462;51.368;12.364;2023-03-23T11:07:28;16.50;99.90
15259;DHT22;34462;51.368;12.364;2023-03-23T11:10:07;16.40;99.90
15259;DHT22;34462;51.368;12.364;2023-03-23T11:12:45;16.30;99.90
15259;DHT22;34462;51.368;12.364;2023-03-23T11:15:28;16.30;99.90
15259;DHT22;34462;51.368;12.364;2023-03-23T11:17:59;16.30;99.90
15259;DHT22;34462;51.368;12.364;2023-03-23T11:20:32;16.40;99.90
15259;DHT22;34462;51.368;12.364;2023-03-23T11:23:14;16.60;99.90
15259;DHT22;34462;51.368;12.364;2023-03-23T11:25:58;16.60;99.90
15259;DHT22;34462;51.368;12.364;2023-03-23T11:28:43;16.50;99.90
15259;DHT22;34462;51.368;12.364;2023-03-23T11:31:13;16.30;99.90
15259;DHT22;34462;51.368;12.364;2023-03-23T11:33:53;16.40;99.90
15259;DHT22;34462;51.368;12.364;2023-03-23T11:36:30;16.30;99.90
15259;DHT22;34462;51.368;12.364;2023-03-23T11:39:00;16.20;99.90
15259;DHT22;34462;51.368;12.364;2023-03-23T11:41:33;16.20;99.90
15259;DHT22;34462;51.368;12.364;2023-03-23T11:44:10;16.10;99.90
15259;DHT22;34462;51.368;12.364;2023-03-23T11:46:45;16.20;99.90
15259;DHT22;34462;51.368;12.364;2023-03-23T11:49:25;16.20;99.90
15259;DHT22;34462;51.368;12.364;2023-03-23T11:52:09;16.30;99.90
15259;DHT22;34462;51.368;12.364;2023-03-23T11:54:48;16.40;99.90
15259;DHT22;34462;51.368;12.364;2023-03-23T11:57:23;16.60;99.90
15259;DHT22;34462;51.368;12.364;2023-03-23T11:59:51;16.50;99.90
15259;DHT22;34462;51.368;12.364;2023-03-23T12:02:32;16.40;99.90
15259;DHT22;34462;51.368;12.364;2023-03-23T12:05:30;16.50;99.90
15259;DHT22;34462;51.368;12.364;2023-03-23T12:08:20;16.40;99.90
15259;DHT22;34462;51.368;12.364;2023-03-23T12:11:01;16.40;99.90
15259;DHT22;34462;51.368;12.364;2023-03-23T12:13:55;16.50;99.90
15259;DHT22;34462;51.368;12.364;2023-03-23T12:16:37;16.70;99.90
15259;DHT22;34462;51.368;12.364;2023-03-23T12:19:19;16.80;99.90
15259;DHT22;34462;51.368;12.364;2023-03-23T12:21:59;16.70;99.90
15259;DHT22;34462;51.368;12.364;2023-03-23T12:24:45;16.80;99.90
15259;DHT22;34462;51.368;12.364;2023-03-23T12:27:37;16.70;99.90
15259;DHT22;34462;51.368;12.364;2023-03-23T12:30:21;16.60;99.90
15259;DHT22;34462;51.368;12.364;2023-03-23T12:33:09;16.60;99.90
15259;DHT22;34462;51.368;12.364;2023-03-23T12:35:51;16.60;99.90
15259;DHT22;34462;51.368;12.364;2023-03-23T12:38:47;16.60;99.90
15259;DHT22;34462;51.368;12.364;2023-03-23T12:41:28;16.70;99.90
15259;DHT22;34462;51.368;12.364;2023-03-23T12:44:02;17.00;99.90
15259;DHT22;34462;51.368;12.364;2023-03-23T12:49:54;17.30;99.90
15259;DHT22;34462;51.368;12.364;2023-03-23T12:52:28;17.40;99.90
15259;DHT22;34462;51.368;12.364;2023-03-23T12:55:05;17.40;99.90
15259;DHT22;34462;51.368;12.364;2023-03-23T12:57:43;17.60;99.90
15259;DHT22;34462;51.368;12.364;2023-03-23T13:00:22;17.90;99.90
15259;DHT22;34462;51.368;12.364;2023-03-23T13:02:56;18.00;99.90
15259;DHT22;34462;51.368;12.364;2023-03-23T13:05:36;18.00;99.90
15259;DHT22;34462;51.368;12.364;2023-03-23T13:08:12;17.80;99.90
15259;DHT22;34462;51.368;12.364;2023-03-23T13:10:46;17.60;99.90
15259;DHT22;34462;51.368;12.364;2023-03-23T13:13:17;17.50;99.90
15259;DHT22;34462;51.368;12.364;2023-03-23T13:15:56;17.30;99.90
15259;DHT22;34462;51.368;12.364;2023-03-23T13:18:38;17.30;99.90
15259;DHT22;34462;51.368;12.364;2023-03-23T13:21:18;17.20;99.90
15259;DHT22;34462;51.368;12.364;2023-03-23T13:23:54;17.10;99.90
15259;DHT22;34462;51.368;12.364;2023-03-23T13:26:24;16.90;99.90
15259;DHT22;34462;51.368;12.364;2023-03-23T13:28:56;16.70;99.90
15259;DHT22;34462;51.368;12.364;2023-03-23T13:31:29;16.60;99.90
15259;DHT22;34462;51.368;12.364;2023-03-23T13:34:02;16.50;99.90
15259;DHT22;34462;51.368;12.364;2023-03-23T13:36:35;16.50;99.90
15259;DHT22;34462;51.368;12.364;2023-03-23T13:39:05;16.40;99.90
15259;DHT22;34462;51.368;12.364;2023-03-23T13:41:48;16.40;99.90
15259;DHT22;34462;51.368;12.364;2023-03-23T13:44:26;16.30;99.90
15259;DHT22;34462;51.368;12.364;2023-03-23T13:47:08;16.20;99.90
15259;DHT22;34462;51.368;12.364;2023-03-23T13:49:49;16.10;99.90
15259;DHT22;34462;51.368;12.364;2023-03-23T13:52:23;15.90;99.90
15259;DHT22;34462;51.368;12.364;2023-03-23T13:54:53;15.90;99.90
15259;DHT22;34462;51.368;12.364;2023-03-23T13:57:50;15.80;99.90
15259;DHT22;34462;51.368;12.364;2023-03-23T14:00:33;15.80;99.90
15259;DHT22;34462;51.368;12.364;2023-03-23T14:03:09;15.70;99.90
15259;DHT22;34462;51.368;12.364;2023-03-23T14:05:41;15.80;99.90
15259;DHT22;34462;51.368;12.364;2023-03-23T14:08:14;15.80;99.90
15259;DHT22;34462;51.368;12.364;2023-03-23T14:10:52;15.70;99.90
15259;DHT22;34462;51.368;12.364;2023-03-23T14:13:28;15.70;99.90
15259;DHT22;34462;51.368;12.364;2023-03-23T14:16:00;15.70;99.90
15259;DHT22;34462;51.368;12.364;2023-03-23T14:18:36;15.80;99.90
15259;DHT22;34462;51.368;12.364;2023-03-23T14:21:06;15.90;99.90
15259;DHT22;34462;51.368;12.364;2023-03-23T14:23:42;15.90;99.90
15259;DHT22;34462;51.368;12.364;2023-03-23T14:26:12;15.90;99.90
15259;DHT22;34462;51.368;12.364;2023-03-23T14:28:44;16.00;99.90
15259;DHT22;34462;51.368;12.364;2023-03-23T14:31:17;16.00;99.90
15259;DHT22;34462;51.368;12.364;2023-03-23T14:33:47;16.10;99.90
15259;DHT22;34462;51.368;12.364;2023-03-23T14:36:20;16.10;99.90
15259;DHT22;34462;51.368;12.364;2023-03-23T14:38:57;16.10;99.90
15259;DHT22;34462;51.368;12.364;2023-03-23T14:41:29;16.10;99.90
15259;DHT22;34462;51.368;12.364;2023-03-23T14:44:00;16.20;99.90
15259;DHT22;34462;51.368;12.364;2023-03-23T14:46:30;16.10;99.90
15259;DHT22;34462;51.368;12.364;2023-03-23T14:49:00;16.00;99.90
15259;DHT22;34462;51.368;12.364;2023-03-23T14:51:29;15.90;99.90
15259;DHT22;34462;51.368;12.364;2023-03-23T14:53:59;15.80;99.90
15259;DHT22;34462;51.368;12.364;2023-03-23T14:56:33;15.60;99.90
15259;DHT22;34462;51.368;12.364;2023-03-23T14:59:04;15.50;99.90
15259;DHT22;34462;51.368;12.364;2023-03-23T15:01:35;15.50;99.90
15259;DHT22;34462;51.368;12.364;2023-03-23T15:04:06;15.40;99.90
15259;DHT22;34462;51.368;12.364;2023-03-23T15:06:38;15.30;99.90
15259;DHT22;34462;51.368;12.364;2023-03-23T15:09:16;15.30;99.90
15259;DHT22;34462;51.368;12.364;2023-03-23T15:11:53;15.20;99.90
15259;DHT22;34462;51.368;12.364;2023-03-23T15:14:24;15.10;99.90
15259;DHT22;34462;51.368;12.364;2023-03-23T15:21:09;15.00;99.90
15259;DHT22;34462;51.368;12.364;2023-03-23T15:23:46;14.90;99.90
15259;DHT22;34462;51.368;12.364;2023-03-23T15:26:27;14.90;99.90
15259;DHT22;34462;51.368;12.364;2023-03-23T15:29:04;14.90;99.90
15259;DHT22;34462;51.368;12.364;2023-03-23T15:31:48;14.90;99.90
15259;DHT22;34462;51.368;12.364;2023-03-23T15:34:28;14.90;99.90
15259;DHT22;34462;51.368;12.364;2023-03-23T15:37:00;15.00;99.90
15259;DHT22;34462;51.368;12.364;2023-03-23T15:39:32;15.00;99.90
15259;DHT22;34462;51.368;12.364;2023-03-23T15:42:04;15.00;99.90
15259;DHT22;34462;51.368;12.364;2023-03-23T15:44:34;15.00;99.90
15259;DHT22;34462;51.368;12.364;2023-03-23T15:47:15;15.00;99.90
15259;DHT22;34462;51.368;12.364;2023-03-23T15:49:45;14.90;99.90
15259;DHT22;34462;51.368;12.364;2023-03-23T15:52:13;14.90;99.90
15259;DHT22;34462;51.368;12.364;2023-03-23T15:54:46;14.90;99.90
15259;DHT22;34462;51.368;12.364;2023-03-23T15:57:16;15.00;99.90
15259;DHT22;34462;51.368;12.364;2023-03-23T15:59:43;15.10;99.90